Craig Municipal Airport
KCRG : now visible

Airfield :











YOU CAN JOIN US ON...

 
LOGIN :

Register | Disclaimer

   EN    FR    IT 

 









Legend :    VFR   Marginal VFR   IFR   Intensive IFR   Very Intensive IFR
Visi :
Ceiling :
>= 8 km
>= 3000ft
5 to 8 km
1000 to 3000 ft
1500m to 5 km
500 to 1000 ft
800 to 1500m
200 to 500 ft
< 800m
< 200 ft
Symbols :   Thunderstorms  Fog  Heavy snow  Heavy precipitations  Wind > 20 kt






- Airport Elevation : 41 ft


KCRG - Craig Municipal

CURRENT METAR :
  • 041553Z 01006KT 10SM CLR 24/17 A3021 RMK AO2 SLP229 T02390172

EXPIRED METARs :
  • 041453Z 00000KT 10SM BKN085 20/17 A3022 RMK AO2 SLP233 T02000167 51008
  • 041353Z 32004KT 10SM FEW065 OVC080 18/16 A3022 RMK AO2 SLP232 T01830161

TAF KCRG
Valid from the 04 at 12:00 until the 05 at 12:00 UTC


041137Z 0412/0512 28004KT 6SM BR SCT025 SCT040
FM041300 30005KT P6SM SCT020 OVC040
FM041700 36008KT P6SM BKN020 OVC035
FM042300 VRB04KT P6SM SCT025 BKN040
FM050500 00000KT 3SM BR SCT005 BKN015
FM050900 00000KT 1/2SM FG BKN003
KZJX FIR / North America



MET'MAP, your aeronautical weather chart ! - Copyright ORBIFLY December 2007 - Disclaimer

ORBIFLY MET'MAP TEAM :

Programming & Development : Alexandra Zaïnal
Original concept : Baudouin d'Aumeries
Technical & hardware support : Manuel Goepfert
Assistance : Marc-Olivier Méhu




SOURCES & CREDITS :

   NOAA       Earth
Advisory